Time;durP1;ratioP1;P1;durP2;ratioP2;P2;SDS_P1;SDS_P2;PMS_P1;PMS_P2;Temp;Humidity;BMP_temperature;BMP_pressure;BME280_temperature;BME280_humidity;BME280_pressure;Samples;Min_cycle;Max_cycle;Signal;HPM_P1;HPM_P2
2021/03/02 00:01:56;;;;;;;14.15;7.43;;;8.30;61.90;;;;;;5016392;28;20064;-77
2021/03/02 00:04:23;;;;;;;16.98;8.98;;;8.40;62.00;;;;;;5021775;28;20041;-77
2021/03/02 00:06:53;;;;;;;17.45;7.63;;;8.50;61.80;;;;;;5025965;28;20053;-77
2021/03/02 00:09:20;;;;;;;15.65;8.48;;;8.50;61.60;;;;;;5018336;28;20381;-76
2021/03/02 00:11:48;;;;;;;14.82;7.55;;;8.40;61.90;;;;;;5029262;28;20055;-76
2021/03/02 00:14:15;;;;;;;15.25;7.20;;;8.40;61.90;;;;;;5026485;28;20053;-76
2021/03/02 00:16:51;;;;;;;18.42;7.43;;;8.30;61.90;;;;;;5021991;28;20057;-77
2021/03/02 00:19:22;;;;;;;12.43;6.95;;;8.30;62.10;;;;;;5024124;28;20057;-77
2021/03/02 00:21:50;;;;;;;15.35;7.78;;;8.30;62.40;;;;;;5024520;28;20045;-77
2021/03/02 00:24:32;;;;;;;17.95;7.97;;;8.30;62.20;;;;;;5027690;28;20042;-77
2021/03/02 00:26:58;;;;;;;15.90;7.25;;;8.40;62.30;;;;;;5033859;28;20067;-77
2021/03/02 00:29:26;;;;;;;17.30;7.97;;;8.30;62.20;;;;;;5031253;28;20092;-77
2021/03/02 00:31:53;;;;;;;16.75;7.53;;;8.30;62.20;;;;;;5033250;28;20058;-77
2021/03/02 00:34:20;;;;;;;19.17;8.02;;;8.10;62.70;;;;;;5021771;28;20049;-77
2021/03/02 00:36:46;;;;;;;17.42;8.40;;;8.10;62.90;;;;;;5032051;28;20050;-77
2021/03/02 00:39:13;;;;;;;16.08;7.70;;;8.20;63.00;;;;;;5028077;28;20056;-77
2021/03/02 00:41:39;;;;;;;16.67;7.45;;;8.30;62.80;;;;;;5036181;28;20088;-77
2021/03/02 00:44:06;;;;;;;17.48;7.60;;;8.20;62.50;;;;;;5031255;28;20054;-77
2021/03/02 00:46:32;;;;;;;16.10;7.30;;;8.20;63.20;;;;;;5031791;28;20053;-77
2021/03/02 00:49:03;;;;;;;;;;;8.10;63.30;;;;;;5024484;28;20046;-77
2021/03/02 00:51:29;;;;;;;18.17;7.57;;;8.10;63.40;;;;;;5033030;28;20360;-76
2021/03/02 00:53:55;;;;;;;13.32;6.50;;;8.20;63.30;;;;;;5029082;28;20598;-77
2021/03/02 00:56:22;;;;;;;17.77;8.40;;;8.20;62.80;;;;;;5029677;28;20339;-77
2021/03/02 00:58:48;;;;;;;17.73;9.10;;;8.00;63.40;;;;;;5025613;28;20390;-77
2021/03/02 01:01:14;;;;;;;12.48;6.97;;;7.90;63.80;;;;;;5022934;28;20038;-77
2021/03/02 01:03:41;;;;;;;20.77;8.48;;;7.80;64.50;;;;;;5030217;28;20045;-77
2021/03/02 01:06:07;;;;;;;17.98;8.07;;;7.80;65.80;;;;;;5031877;28;20049;-76
2021/03/02 01:08:34;;;;;;;22.10;8.32;;;7.80;66.00;;;;;;5031244;28;20049;-77
2021/03/02 01:11:00;;;;;;;17.13;8.63;;;7.90;66.00;;;;;;5025513;28;20053;-77
2021/03/02 01:13:27;;;;;;;17.00;8.93;;;7.80;66.50;;;;;;5031860;28;20068;-77
2021/03/02 01:15:53;;;;;;;16.77;8.50;;;7.70;67.30;;;;;;5031744;28;20041;-76
2021/03/02 01:18:23;;;;;;;18.10;8.55;;;7.70;67.20;;;;;;5015870;28;20062;-77
2021/03/02 01:20:50;;;;;;;20.38;8.38;;;7.60;67.80;;;;;;5035280;28;20049;-77
2021/03/02 01:23:16;;;;;;;17.42;8.48;;;7.60;68.20;;;;;;5022682;28;20046;-77
2021/03/02 01:25:43;;;;;;;19.88;8.15;;;7.50;68.30;;;;;;5024026;28;20053;-77
2021/03/02 01:28:09;;;;;;;18.95;8.20;;;7.40;69.50;;;;;;5027151;28;20465;-77
2021/03/02 01:30:35;;;;;;;16.10;8.65;;;7.40;70.60;;;;;;5027887;28;20052;-77
2021/03/02 01:33:02;;;;;;;16.35;7.88;;;7.30;71.30;;;;;;5020200;28;20053;-77
2021/03/02 01:35:29;;;;;;;17.67;8.82;;;7.20;71.90;;;;;;5032335;28;20404;-77
2021/03/02 01:37:55;;;;;;;18.55;9.00;;;7.30;72.30;;;;;;5030795;28;20405;-77
2021/03/02 01:40:22;;;;;;;18.35;9.38;;;7.30;72.80;;;;;;5030967;28;20053;-77
2021/03/02 01:42:49;;;;;;;19.92;9.82;;;7.30;73.60;;;;;;5029593;28;20116;-77
2021/03/02 01:45:18;;;;;;;21.08;9.25;;;7.20;73.90;;;;;;5029209;28;20444;-77
2021/03/02 01:47:49;;;;;;;20.33;9.48;;;7.20;75.00;;;;;;5022316;28;20053;-76
2021/03/02 01:50:18;;;;;;;24.60;9.95;;;7.10;75.60;;;;;;5034832;28;20408;-77
2021/03/02 01:52:44;;;;;;;22.20;9.95;;;7.10;76.40;;;;;;5022454;28;20077;-76
2021/03/02 01:55:14;;;;;;;21.17;9.18;;;7.00;77.00;;;;;;5027541;28;20124;-77
2021/03/02 01:57:40;;;;;;;23.30;9.65;;;7.00;78.90;;;;;;5031657;28;20132;-77
2021/03/02 02:00:09;;;;;;;19.50;9.80;;;6.90;79.90;;;;;;5032508;28;20405;-77
2021/03/02 02:02:47;;;;;;;22.70;10.18;;;6.80;80.80;;;;;;5023812;28;20049;-77
2021/03/02 02:05:14;;;;;;;19.02;9.48;;;6.80;80.70;;;;;;5021509;28;20077;-76
2021/03/02 02:07:44;;;;;;;18.17;10.05;;;7.00;81.10;;;;;;5026405;28;20097;-76
2021/03/02 02:10:54;;;;;;;17.27;9.52;;;6.90;81.50;;;;;;5057892;28;20058;-77
2021/03/02 02:13:36;;;;;;;18.15;9.38;;;6.90;82.20;;;;;;5022451;28;20053;-77
2021/03/02 02:16:09;;;;;;;21.40;10.45;;;6.90;81.90;;;;;;5029118;28;20068;-77
2021/03/02 02:18:37;;;;;;;19.65;9.70;;;6.90;82.60;;;;;;5031340;28;20049;-77
2021/03/02 02:21:06;;;;;;;21.35;10.43;;;6.90;82.70;;;;;;5031313;28;20046;-78
2021/03/02 02:23:55;;;;;;;18.52;9.15;;;6.80;81.90;;;;;;5031560;28;20038;-77
2021/03/02 02:26:43;;;;;;;19.23;9.88;;;6.80;82.80;;;;;;5031533;28;20053;-78
2021/03/02 02:29:13;;;;;;;22.58;9.93;;;6.90;83.00;;;;;;5030275;28;20123;-77
2021/03/02 02:31:41;;;;;;;22.33;9.77;;;7.00;82.40;;;;;;5028688;28;20056;-77
2021/03/02 02:34:10;;;;;;;18.48;8.93;;;6.90;82.20;;;;;;5032082;28;20377;-77
2021/03/02 02:36:39;;;;;;;21.33;9.63;;;6.80;82.70;;;;;;5032626;28;20472;-77
2021/03/02 02:39:06;;;;;;;22.80;9.20;;;7.00;81.20;;;;;;5027886;28;20103;-77
2021/03/02 02:41:33;;;;;;;18.42;9.18;;;6.90;82.70;;;;;;5029914;28;20091;-77
2021/03/02 02:44:22;;;;;;;17.92;9.10;;;6.80;84.70;;;;;;5032030;28;20045;-77
2021/03/02 02:46:55;;;;;;;15.68;8.82;;;6.80;85.20;;;;;;5040805;28;20041;-77
2021/03/02 02:49:22;;;;;;;17.88;9.00;;;6.80;84.80;;;;;;5020804;28;20050;-77
2021/03/02 02:51:49;;;;;;;15.73;8.25;;;6.90;83.60;;;;;;5033478;28;20456;-77
2021/03/02 02:54:17;;;;;;;20.73;9.23;;;6.90;84.20;;;;;;5027612;28;20088;-78
2021/03/02 02:56:45;;;;;;;16.83;8.13;;;6.90;82.80;;;;;;5029947;28;20506;-78
2021/03/02 02:59:22;;;;;;;20.45;9.45;;;6.80;82.90;;;;;;5027369;28;20474;-77
2021/03/02 03:01:54;;;;;;;19.23;8.38;;;6.90;82.60;;;;;;5030200;28;20485;-78
2021/03/02 03:04:26;;;;;;;18.27;8.68;;;6.90;82.40;;;;;;5029832;28;20050;-78
2021/03/02 03:06:56;;;;;;;19.80;9.18;;;7.10;81.60;;;;;;5032040;28;20049;-77
2021/03/02 03:09:23;;;;;;;23.95;9.02;;;6.90;81.50;;;;;;5028358;28;20120;-77
2021/03/02 03:11:57;;;;;;;19.98;8.80;;;7.00;81.70;;;;;;5023475;28;20458;-77
2021/03/02 03:14:54;;;;;;;18.27;8.70;;;6.80;81.40;;;;;;5030831;28;20049;-77
2021/03/02 03:17:21;;;;;;;16.97;9.00;;;6.70;82.30;;;;;;5029334;28;20533;-77
2021/03/02 03:19:51;;;;;;;19.33;9.60;;;7.00;83.10;;;;;;5027541;28;20059;-77
2021/03/02 03:22:18;;;;;;;21.05;9.43;;;6.70;83.40;;;;;;5029785;28;20041;-77
2021/03/02 03:24:44;;;;;;;20.60;9.05;;;6.60;84.10;;;;;;5015780;28;20073;-77
2021/03/02 03:27:13;;;;;;;15.90;8.90;;;6.80;83.30;;;;;;5027868;28;20073;-77
2021/03/02 03:29:41;;;;;;;18.35;9.18;;;6.90;83.60;;;;;;5027242;28;20489;-77
2021/03/02 03:32:09;;;;;;;17.55;9.30;;;6.60;84.20;;;;;;5018018;28;20480;-77
2021/03/02 03:34:39;;;;;;;19.05;9.43;;;6.60;84.10;;;;;;5062445;28;20085;-77
2021/03/02 03:37:05;;;;;;;18.08;9.48;;;6.70;84.00;;;;;;5031899;28;20049;-77
2021/03/02 03:39:32;;;;;;;18.83;9.18;;;6.70;83.20;;;;;;5026701;28;20069;-77
2021/03/02 03:41:58;;;;;;;20.30;9.75;;;6.70;83.50;;;;;;5031586;28;20136;-77
2021/03/02 03:44:25;;;;;;;20.90;10.13;;;6.50;83.50;;;;;;5028686;28;20448;-76
2021/03/02 03:46:51;;;;;;;19.95;9.05;;;6.40;84.60;;;;;;5029261;28;20045;-76
2021/03/02 03:49:18;;;;;;;20.60;10.32;;;6.60;84.50;;;;;;5030484;28;20057;-77
2021/03/02 03:51:45;;;;;;;18.70;9.95;;;6.60;83.60;;;;;;5022672;28;20139;-77
2021/03/02 03:54:14;;;;;;;18.30;9.10;;;6.50;84.80;;;;;;5022836;28;20081;-78
2021/03/02 03:56:43;;;;;;;20.02;10.02;;;6.60;84.90;;;;;;5031515;28;20482;-76
2021/03/02 03:59:11;;;;;;;18.25;9.63;;;6.40;84.60;;;;;;5024655;28;20045;-77
2021/03/02 04:01:38;;;;;;;16.88;8.95;;;6.60;84.90;;;;;;5027486;28;20037;-77
2021/03/02 04:04:06;;;;;;;22.25;9.07;;;6.70;84.00;;;;;;5021485;28;20073;-77
2021/03/02 04:06:33;;;;;;;19.02;9.68;;;6.60;83.90;;;;;;5026574;28;20088;-77
2021/03/02 04:09:01;;;;;;;17.13;8.90;;;6.70;83.50;;;;;;5025999;28;20050;-77
2021/03/02 04:11:27;;;;;;;19.58;9.73;;;6.70;83.10;;;;;;5029267;28;20058;-77
2021/03/02 04:13:57;;;;;;;20.20;9.73;;;6.50;83.50;;;;;;5030483;28;20053;-77
2021/03/02 04:16:23;;;;;;;18.35;9.25;;;6.30;84.60;;;;;;5028920;28;20124;-77
2021/03/02 04:18:50;;;;;;;18.02;9.63;;;6.30;86.10;;;;;;5019600;28;20045;-77
2021/03/02 04:21:17;;;;;;;18.80;9.18;;;6.50;85.40;;;;;;5030386;28;20104;-77
2021/03/02 04:23:43;;;;;;;22.27;9.93;;;6.70;85.10;;;;;;5030204;28;20045;-78
2021/03/02 04:26:10;;;;;;;18.65;9.30;;;6.20;86.30;;;;;;5022881;28;20072;-76
2021/03/02 04:28:36;;;;;;;18.90;9.90;;;6.30;86.80;;;;;;5029704;28;20132;-76
2021/03/02 04:31:02;;;;;;;21.17;10.38;;;6.30;85.50;;;;;;5028718;28;20554;-76
2021/03/02 04:33:28;;;;;;;20.90;9.57;;;6.20;86.00;;;;;;5020218;28;20075;-77
2021/03/02 04:35:55;;;;;;;19.10;8.45;;;6.00;86.50;;;;;;5031831;28;20062;-77
2021/03/02 04:38:22;;;;;;;15.75;8.23;;;6.10;87.60;;;;;;5026428;28;20475;-76
2021/03/02 04:40:48;;;;;;;17.58;9.07;;;6.30;85.90;;;;;;5027909;28;20049;-77
2021/03/02 04:43:14;;;;;;;16.00;8.38;;;6.20;86.30;;;;;;5029916;28;20111;-77
2021/03/02 04:45:51;;;;;;;18.77;9.07;;;6.20;86.80;;;;;;5028837;28;20128;-77
2021/03/02 04:48:18;;;;;;;18.05;9.18;;;6.10;86.40;;;;;;5026333;28;20081;-76
2021/03/02 04:50:45;;;;;;;22.80;8.60;;;6.10;87.40;;;;;;5030461;28;20045;-76
2021/03/02 04:53:12;;;;;;;17.13;9.00;;;6.10;88.00;;;;;;5026119;28;20144;-76
2021/03/02 04:55:38;;;;;;;20.13;9.00;;;5.90;90.50;;;;;;5027723;28;20154;-76
2021/03/02 04:58:05;;;;;;;17.67;9.05;;;6.10;90.10;;;;;;5025809;28;20142;-76
2021/03/02 05:00:31;;;;;;;19.75;9.70;;;6.10;89.10;;;;;;5027377;28;20095;-76
2021/03/02 05:02:57;;;;;;;20.92;9.40;;;6.10;89.30;;;;;;5023074;28;20103;-76
2021/03/02 05:05:24;;;;;;;18.95;9.40;;;6.00;88.30;;;;;;5030614;28;20053;-76
2021/03/02 05:07:50;;;;;;;20.02;9.43;;;5.90;88.70;;;;;;5029328;28;20152;-76
2021/03/02 05:10:16;;;;;;;17.75;9.43;;;6.10;89.10;;;;;;5019512;28;20108;-77
2021/03/02 05:12:43;;;;;;;20.38;8.98;;;6.20;87.30;;;;;;5018576;28;20450;-77
2021/03/02 05:15:10;;;;;;;19.30;9.00;;;6.20;86.80;;;;;;5033473;28;20446;-76
2021/03/02 05:17:36;;;;;;;20.00;9.82;;;6.10;86.80;;;;;;5029989;28;20141;-77
2021/03/02 05:20:04;;;;;;;23.38;9.38;;;6.00;87.80;;;;;;5034592;28;20056;-76
2021/03/02 05:22:30;;;;;;;18.02;9.60;;;6.00;88.30;;;;;;5030987;28;20045;-77
2021/03/02 05:24:56;;;;;;;24.13;9.55;;;5.90;88.60;;;;;;5033159;28;20072;-77
2021/03/02 05:27:23;;;;;;;17.85;9.15;;;6.00;88.00;;;;;;5024623;28;20054;-78
2021/03/02 05:29:49;;;;;;;17.30;8.32;;;6.00;87.30;;;;;;5023590;28;20050;-76
2021/03/02 05:32:16;;;;;;;18.67;8.68;;;6.00;87.80;;;;;;5022144;28;20088;-76
2021/03/02 05:34:42;;;;;;;17.90;8.85;;;6.00;87.20;;;;;;5035114;28;20156;-76
2021/03/02 05:37:08;;;;;;;21.80;9.07;;;6.00;87.10;;;;;;5031499;28;20046;-76
2021/03/02 05:39:35;;;;;;;17.05;8.70;;;6.00;86.60;;;;;;5030870;28;20045;-76
2021/03/02 05:42:02;;;;;;;21.15;8.43;;;6.00;86.10;;;;;;5034139;28;20132;-76
2021/03/02 05:44:29;;;;;;;17.58;9.02;;;5.90;86.60;;;;;;5032078;28;20136;-76
2021/03/02 05:46:55;;;;;;;17.30;8.35;;;5.70;87.80;;;;;;5030585;28;20167;-76
2021/03/02 05:49:22;;;;;;;16.50;7.72;;;6.00;87.30;;;;;;5029516;28;20044;-76
2021/03/02 05:51:49;;;;;;;13.88;7.97;;;5.90;87.50;;;;;;5025685;28;20148;-77
2021/03/02 05:54:17;;;;;;;18.92;8.52;;;5.80;87.70;;;;;;5031193;28;20087;-76
2021/03/02 05:56:43;;;;;;;19.75;8.38;;;5.80;88.70;;;;;;5031247;28;20191;-77
2021/03/02 05:59:10;;;;;;;18.92;8.50;;;5.90;88.00;;;;;;5031159;28;20124;-77
2021/03/02 06:01:37;;;;;;;15.70;7.88;;;5.80;88.30;;;;;;5023578;28;20045;-77
2021/03/02 06:04:04;;;;;;;19.60;7.50;;;5.70;88.40;;;;;;5063672;28;20049;-79
2021/03/02 06:06:31;;;;;;;16.20;8.50;;;5.80;88.50;;;;;;5030845;28;20521;-76
2021/03/02 06:08:57;;;;;;;15.32;7.82;;;5.70;88.90;;;;;;5028872;28;20482;-77
2021/03/02 06:11:24;;;;;;;18.55;7.95;;;5.80;88.40;;;;;;5028070;28;20058;-77
2021/03/02 06:13:51;;;;;;;17.60;8.48;;;5.70;88.70;;;;;;5031119;28;20085;-77
2021/03/02 06:16:17;;;;;;;19.90;8.63;;;5.90;87.70;;;;;;5023372;28;20057;-76
2021/03/02 06:18:52;;;;;;;14.80;7.93;;;5.90;87.30;;;;;;5016093;28;20128;-76
2021/03/02 06:21:22;;;;;;;16.50;8.38;;;5.80;87.60;;;;;;5040968;28;20050;-77
2021/03/02 06:23:53;;;;;;;19.65;8.60;;;5.80;88.80;;;;;;5027916;28;20131;-77
2021/03/02 06:26:26;;;;;;;22.58;10.48;;;5.80;88.50;;;;;;5018110;28;20042;-77
2021/03/02 06:28:57;;;;;;;18.33;9.48;;;5.60;89.60;;;;;;5032149;28;20053;-76
2021/03/02 06:31:31;;;;;;;22.85;10.27;;;5.60;89.20;;;;;;5061079;28;20073;-77
2021/03/02 06:34:12;;;;;;;19.38;8.80;;;5.70;89.70;;;;;;5024156;28;20056;-78
2021/03/02 06:36:41;;;;;;;18.38;8.15;;;5.60;89.60;;;;;;5017539;28;20046;-78
2021/03/02 06:39:30;;;;;;;19.35;8.40;;;5.60;90.00;;;;;;5030512;28;20505;-77
2021/03/02 06:42:16;;;;;;;18.48;8.18;;;5.70;89.90;;;;;;5027220;28;20041;-77
2021/03/02 06:44:44;;;;;;;18.63;8.60;;;5.90;88.80;;;;;;5028760;28;20128;-77
2021/03/02 06:47:32;;;;;;;19.02;8.60;;;5.90;87.90;;;;;;5027321;28;20435;-77
2021/03/02 06:50:01;;;;;;;16.17;8.60;;;6.00;89.10;;;;;;5032272;28;20045;-76
2021/03/02 06:52:38;;;;;;;19.42;9.10;;;5.90;88.40;;;;;;5032169;28;20045;-75
2021/03/02 06:55:21;;;;;;;16.50;8.38;;;5.90;88.80;;;;;;5025861;28;20132;-75
2021/03/02 06:57:49;;;;;;;18.50;8.98;;;5.70;89.00;;;;;;5043558;28;20046;-76
2021/03/02 07:00:30;;;;;;;31.23;12.05;;;6.10;89.40;;;;;;5060803;28;20068;-76
2021/03/02 07:02:57;;;;;;;;;;;6.10;88.20;;;;;;5029144;28;20395;-77
2021/03/02 07:05:24;;;;;;;35.60;11.70;;;6.10;88.00;;;;;;5042512;28;19944;-77
2021/03/02 07:07:57;;;;;;;37.92;12.70;;;6.10;87.70;;;;;;5028913;28;20393;-77
2021/03/02 07:10:24;;;;;;;54.25;13.98;;;6.10;88.10;;;;;;5019226;28;20053;-77
2021/03/02 07:12:54;;;;;;;32.50;13.00;;;6.10;88.00;;;;;;5030320;28;20441;-77
2021/03/02 07:15:24;;;;;;;26.00;11.00;;;6.00;88.40;;;;;;5029140;28;20049;-77
2021/03/02 07:17:53;;;;;;;29.20;10.63;;;6.20;88.00;;;;;;5030249;28;20136;-76
2021/03/02 07:20:23;;;;;;;20.85;9.02;;;6.20;87.60;;;;;;5048105;28;20077;-77
2021/03/02 07:22:53;;;;;;;19.33;9.45;;;6.20;87.70;;;;;;5031442;28;20053;-79
2021/03/02 07:25:21;;;;;;;21.83;9.63;;;6.10;88.00;;;;;;5027541;28;20049;-78
2021/03/02 07:27:50;;;;;;;18.20;8.80;;;6.10;88.20;;;;;;5026475;28;21120;-77
2021/03/02 07:30:16;;;;;;;21.75;8.88;;;6.20;87.80;;;;;;5019157;28;20046;-78
2021/03/02 07:32:47;;;;;;;17.75;8.80;;;6.20;87.50;;;;;;5021452;28;20100;-79
2021/03/02 07:35:22;;;;;;;17.27;8.32;;;6.20;87.80;;;;;;5027119;28;20045;-78
2021/03/02 07:37:49;;;;;;;20.73;8.85;;;6.30;88.40;;;;;;5031729;28;20053;-78
2021/03/02 07:40:20;;;;;;;22.05;9.48;;;6.50;86.50;;;;;;5023161;28;20130;-77
2021/03/02 07:42:47;;;;;;;24.17;10.15;;;6.40;86.60;;;;;;5024388;28;20061;-78
2021/03/02 07:45:18;;;;;;;23.63;10.25;;;6.40;86.80;;;;;;5024441;28;20099;-77
2021/03/02 07:47:58;;;;;;;15.60;8.77;;;6.40;86.40;;;;;;5018344;28;20053;-77
2021/03/02 07:50:28;;;;;;;20.17;9.10;;;6.50;85.30;;;;;;5027299;28;20072;-77
2021/03/02 07:53:16;;;;;;;17.75;8.82;;;6.70;85.80;;;;;;5020058;28;20404;-78
2021/03/02 07:55:43;;;;;;;17.85;8.57;;;6.80;84.00;;;;;;5033977;28;20080;-80
2021/03/02 07:58:17;;;;;;;19.15;7.88;;;7.30;83.10;;;;;;5022628;28;20041;-78
2021/03/02 08:00:48;;;;;;;21.77;8.10;;;9.50;76.30;;;;;;5059005;28;20108;-78
2021/03/02 08:03:25;;;;;;;18.73;7.72;;;10.70;69.40;;;;;;5023646;28;20041;-76
2021/03/02 08:05:58;;;;;;;19.60;8.50;;;10.90;65.10;;;;;;5026444;28;20098;-77
2021/03/02 08:08:24;;;;;;;16.27;7.65;;;10.60;65.80;;;;;;5026343;28;20092;-77
2021/03/02 08:11:00;;;;;;;17.13;8.15;;;11.50;64.40;;;;;;5027801;28;20077;-77
2021/03/02 08:13:46;;;;;;;16.63;8.27;;;12.90;60.00;;;;;;5027362;28;20127;-76
2021/03/02 08:16:13;;;;;;;18.92;8.27;;;11.90;59.50;;;;;;5022132;28;20793;-77
2021/03/02 08:18:43;;;;;;;17.48;8.10;;;10.80;61.60;;;;;;5034085;28;20063;-78
2021/03/02 08:21:18;;;;;;;20.33;8.70;;;10.60;63.50;;;;;;5033569;28;20058;-77
2021/03/02 08:23:52;;;;;;;21.33;9.40;;;11.70;62.30;;;;;;5034329;28;20126;-78
2021/03/02 08:26:35;;;;;;;19.83;8.88;;;12.20;60.20;;;;;;5035699;28;20187;-78
2021/03/02 08:29:16;;;;;;;22.73;9.30;;;12.00;59.50;;;;;;5035511;28;20175;-78
2021/03/02 08:31:46;;;;;;;;;;;12.10;59.60;;;;;;5035924;28;20136;-77
2021/03/02 08:34:14;;;;;;;;;;;12.00;59.70;;;;;;5036395;28;20497;-77
2021/03/02 08:36:41;;;;;;;26.83;10.75;;;12.40;59.20;;;;;;5037234;28;19929;-78
2021/03/02 08:39:16;;;;;;;30.85;12.82;;;11.40;59.60;;;;;;5033333;28;20111;-78
2021/03/02 08:41:45;;;;;;;43.92;12.60;;;10.90;62.10;;;;;;5033663;28;20477;-77
2021/03/02 08:44:23;;;;;;;22.42;11.98;;;10.50;64.50;;;;;;5036739;28;20045;-78
2021/03/02 08:46:52;;;;;;;29.20;13.15;;;11.00;63.90;;;;;;5035671;28;20077;-79
2021/03/02 08:49:19;;;;;;;28.88;13.00;;;12.40;60.10;;;;;;5039663;28;20048;-78
2021/03/02 08:51:47;;;;;;;25.92;12.98;;;13.60;56.90;;;;;;5039262;28;20579;-76
2021/03/02 08:54:14;;;;;;;25.65;12.27;;;13.90;55.90;;;;;;5038992;28;20523;-77
2021/03/02 08:56:40;;;;;;;23.15;11.48;;;13.60;55.30;;;;;;5022529;28;20751;-77
2021/03/02 08:59:14;;;;;;;31.25;12.45;;;12.90;56.00;;;;;;5038246;28;20496;-78
2021/03/02 09:01:42;;;;;;;24.40;11.35;;;13.60;56.60;;;;;;5037211;28;20111;-77
2021/03/02 09:04:18;;;;;;;23.20;11.98;;;13.80;54.30;;;;;;5037686;28;20508;-77
2021/03/02 09:06:49;;;;;;;30.27;11.63;;;12.20;56.50;;;;;;5039700;28;20053;-77
2021/03/02 09:09:20;;;;;;;25.67;11.00;;;13.00;56.30;;;;;;5038500;28;20081;-78
2021/03/02 09:11:52;;;;;;;26.80;10.88;;;13.10;55.30;;;;;;5037961;28;20104;-77
2021/03/02 09:14:20;;;;;;;22.08;10.20;;;13.50;54.60;;;;;;5041623;28;20521;-78
2021/03/02 09:16:52;;;;;;;33.25;12.38;;;13.30;54.30;;;;;;5037569;28;20048;-78
2021/03/02 09:19:23;;;;;;;29.17;12.43;;;11.90;56.30;;;;;;5039743;28;20079;-80
2021/03/02 09:22:00;;;;;;;28.58;11.82;;;11.10;58.10;;;;;;5038051;28;20081;-75
2021/03/02 09:24:45;;;;;;;22.40;11.63;;;11.20;58.70;;;;;;5037676;28;20068;-75
2021/03/02 09:27:14;;;;;;;26.10;11.85;;;11.40;58.60;;;;;;5039124;28;20552;-75
2021/03/02 09:29:46;;;;;;;19.40;10.68;;;12.40;56.80;;;;;;5039761;28;20053;-74
2021/03/02 09:32:16;;;;;;;21.80;11.55;;;13.00;55.30;;;;;;5037192;28;20085;-76
2021/03/02 09:34:45;;;;;;;35.08;12.13;;;13.70;54.40;;;;;;5037165;28;20049;-76
2021/03/02 09:37:19;;;;;;;24.15;12.20;;;13.20;54.40;;;;;;5039910;28;20145;-76
2021/03/02 09:40:02;;;;;;;30.25;13.18;;;13.80;54.60;;;;;;5038024;28;20107;-76
2021/03/02 09:42:31;;;;;;;28.23;13.20;;;14.00;52.50;;;;;;5035166;28;20073;-76
2021/03/02 09:44:59;;;;;;;25.63;13.40;;;13.50;53.90;;;;;;5040322;28;20072;-76
2021/03/02 09:47:31;;;;;;;34.10;15.93;;;14.00;52.40;;;;;;5036726;28;20049;-77
2021/03/02 09:50:08;;;;;;;26.17;15.98;;;12.60;54.70;;;;;;5036713;28;20058;-76
2021/03/02 09:52:48;;;;;;;26.52;15.23;;;13.00;54.50;;;;;;5038954;28;20545;-77
2021/03/02 09:55:32;;;;;;;;;;;12.70;55.10;;;;;;5037480;28;20061;-76
2021/03/02 09:58:15;;;;;;;33.85;15.55;;;12.50;57.60;;;;;;5067737;28;19925;-76
2021/03/02 10:00:44;;;;;;;27.42;15.07;;;11.90;56.20;;;;;;5038423;28;20064;-77
2021/03/02 10:03:13;;;;;;;28.50;15.20;;;12.00;59.40;;;;;;5024577;28;20106;-76
2021/03/02 10:05:59;;;;;;;28.13;15.15;;;12.00;56.40;;;;;;5021898;28;20156;-76
2021/03/02 10:08:35;;;;;;;28.80;14.75;;;13.40;54.40;;;;;;5019834;28;20096;-75
2021/03/02 10:11:03;;;;;;;28.25;14.13;;;13.00;55.50;;;;;;5037121;28;20173;-74
2021/03/02 10:13:35;;;;;;;30.25;13.40;;;13.00;54.90;;;;;;5024339;28;20147;-80
2021/03/02 10:16:12;;;;;;;30.55;14.23;;;13.40;53.80;;;;;;5023519;28;20994;-74
2021/03/02 10:18:52;;;;;;;28.23;13.55;;;13.40;54.00;;;;;;5022195;28;20053;-75
2021/03/02 10:21:20;;;;;;;24.25;12.88;;;12.90;54.50;;;;;;5023166;28;20439;-76
2021/03/02 10:23:49;;;;;;;28.73;14.82;;;12.90;55.50;;;;;;5019331;28;20431;-75
2021/03/02 10:26:21;;;;;;;26.38;12.32;;;13.10;54.30;;;;;;5021968;28;20131;-76
2021/03/02 10:28:48;;;;;;;22.77;12.60;;;13.70;54.20;;;;;;5020740;28;20080;-76
2021/03/02 10:31:15;;;;;;;28.10;13.75;;;13.40;53.70;;;;;;5023319;28;20087;-76
2021/03/02 10:33:41;;;;;;;26.50;12.57;;;13.10;54.20;;;;;;5021452;28;20127;-75
2021/03/02 10:36:37;;;;;;;22.02;12.70;;;13.50;53.80;;;;;;5026324;28;20050;-75
2021/03/02 10:39:09;;;;;;;23.40;12.85;;;15.10;52.40;;;;;;5017850;28;20081;-75
2021/03/02 10:41:36;;;;;;;25.67;12.55;;;15.80;50.40;;;;;;5020735;28;20147;-75
2021/03/02 10:44:04;;;;;;;23.55;12.38;;;16.40;49.00;;;;;;5020638;28;20049;-75
2021/03/02 10:46:31;;;;;;;26.40;13.55;;;15.80;50.50;;;;;;5020729;28;20382;-75
2021/03/02 10:48:58;;;;;;;21.20;12.10;;;14.90;50.10;;;;;;5018695;28;20460;-72
2021/03/02 10:51:27;;;;;;;28.23;13.15;;;14.60;51.90;;;;;;5022731;28;20125;-75
2021/03/02 10:53:53;;;;;;;28.58;12.73;;;15.40;50.90;;;;;;5020976;28;20753;-80
2021/03/02 10:56:20;;;;;;;25.02;13.25;;;15.40;49.90;;;;;;5022038;28;20061;-79
2021/03/02 10:58:48;;;;;;;24.55;13.18;;;15.40;49.90;;;;;;5020677;28;20064;-79
2021/03/02 11:01:15;;;;;;;30.20;13.50;;;15.00;50.80;;;;;;5028404;28;20050;-79
2021/03/02 11:03:43;;;;;;;24.58;12.85;;;16.60;48.60;;;;;;5019350;28;20770;-77
2021/03/02 11:06:14;;;;;;;23.70;13.07;;;15.50;49.30;;;;;;5026027;28;20505;-78
2021/03/02 11:08:57;;;;;;;27.55;13.07;;;15.80;48.40;;;;;;5024379;28;20472;-78
2021/03/02 11:11:26;;;;;;;25.55;12.50;;;16.00;48.90;;;;;;5020204;28;20088;-78
2021/03/02 11:13:54;;;;;;;22.23;12.27;;;16.50;48.20;;;;;;5024723;28;20053;-79
2021/03/02 11:16:20;;;;;;;25.45;13.30;;;17.60;46.30;;;;;;5021139;28;20068;-79
2021/03/02 11:18:51;;;;;;;23.40;12.10;;;16.80;47.00;;;;;;5023531;28;20058;-81
2021/03/02 11:21:18;;;;;;;24.58;12.85;;;16.00;48.00;;;;;;5024928;28;20060;-81
2021/03/02 11:23:44;;;;;;;23.80;11.82;;;15.60;48.80;;;;;;5020548;28;20076;-79
2021/03/02 11:26:10;;;;;;;27.45;12.57;;;15.40;48.90;;;;;;5024327;28;20049;-79
2021/03/02 11:28:37;;;;;;;18.35;11.50;;;15.00;50.30;;;;;;5018158;28;20085;-80
2021/03/02 11:31:04;;;;;;;23.75;11.70;;;15.30;50.10;;;;;;5020953;28;20053;-79
2021/03/02 11:33:30;;;;;;;26.42;11.82;;;16.30;48.60;;;;;;5019419;28;20740;-79
2021/03/02 11:35:57;;;;;;;24.77;12.55;;;17.20;46.90;;;;;;5021000;28;20049;-78
2021/03/02 11:38:24;;;;;;;21.92;12.10;;;17.40;46.10;;;;;;5023185;28;20060;-79
2021/03/02 11:40:51;;;;;;;27.27;13.07;;;17.90;44.90;;;;;;5024368;28;20385;-79
2021/03/02 11:43:18;;;;;;;23.50;12.50;;;18.00;45.10;;;;;;5021804;28;20559;-79
2021/03/02 11:45:44;;;;;;;30.08;14.23;;;19.70;42.60;;;;;;5021886;28;20899;-79
2021/03/02 11:48:12;;;;;;;24.70;13.38;;;20.00;42.00;;;;;;5021988;28;20092;-80
2021/03/02 11:50:54;;;;;;;22.38;12.77;;;19.50;42.40;;;;;;5023197;28;20053;-78
2021/03/02 11:53:21;;;;;;;20.48;12.50;;;18.00;43.90;;;;;;5023716;28;20041;-82
2021/03/02 11:55:47;;;;;;;25.95;13.23;;;17.20;45.90;;;;;;5021972;28;20111;-80
2021/03/02 11:58:13;;;;;;;24.40;12.40;;;17.20;46.00;;;;;;5024068;28;20081;-80
2021/03/02 12:00:40;;;;;;;24.35;12.45;;;16.80;46.40;;;;;;5021066;28;20069;-80
2021/03/02 12:03:22;;;;;;;24.50;12.80;;;16.40;46.70;;;;;;5021530;28;20053;-80
2021/03/02 12:05:50;;;;;;;23.63;12.65;;;15.90;48.40;;;;;;5021198;28;20050;-79
2021/03/02 12:08:18;;;;;;;27.45;11.88;;;16.30;47.60;;;;;;5025113;28;20074;-79
2021/03/02 12:10:44;;;;;;;28.88;12.52;;;16.40;47.20;;;;;;5017604;28;20097;-78
2021/03/02 12:13:12;;;;;;;25.40;12.13;;;16.40;46.90;;;;;;5023495;28;20409;-77
2021/03/02 12:15:38;;;;;;;21.90;11.98;;;16.30;47.50;;;;;;5022329;28;20094;-78
2021/03/02 12:18:05;;;;;;;25.15;11.90;;;15.90;47.60;;;;;;5021236;28;20386;-80
2021/03/02 12:20:32;;;;;;;23.95;11.75;;;16.00;48.40;;;;;;5016273;28;20056;-80
2021/03/02 12:22:58;;;;;;;21.77;11.40;;;16.60;46.90;;;;;;5053208;28;20133;-80
2021/03/02 12:25:24;;;;;;;24.77;11.90;;;17.00;46.00;;;;;;5020056;28;20052;-80
2021/03/02 12:27:51;;;;;;;26.30;12.75;;;18.00;45.60;;;;;;5018932;28;20049;-78
2021/03/02 12:30:18;;;;;;;27.27;11.93;;;19.10;43.70;;;;;;5021207;28;20072;-78
2021/03/02 12:32:44;;;;;;;24.73;12.50;;;19.50;42.60;;;;;;5039613;28;20053;-74
2021/03/02 12:35:12;;;;;;;23.25;11.73;;;18.30;44.10;;;;;;5021704;28;20050;-73
2021/03/02 12:37:39;;;;;;;25.40;12.50;;;17.60;45.00;;;;;;5020582;28;20075;-79
2021/03/02 12:40:06;;;;;;;23.20;11.55;;;17.40;45.10;;;;;;5000878;28;21708;-74
2021/03/02 12:42:36;;;;;;;22.25;11.32;;;17.20;46.50;;;;;;5020917;28;20060;-74
2021/03/02 12:45:04;;;;;;;34.28;13.20;;;17.40;46.50;;;;;;5018311;28;20144;-74
2021/03/02 12:47:31;;;;;;;27.23;12.00;;;17.60;47.30;;;;;;5020782;28;22249;-73
2021/03/02 12:49:57;;;;;;;21.60;11.68;;;17.50;46.20;;;;;;5020829;28;20092;-73
2021/03/02 12:52:23;;;;;;;22.02;11.38;;;17.80;46.10;;;;;;5019632;28;20127;-73
2021/03/02 12:54:50;;;;;;;22.20;11.55;;;17.70;45.60;;;;;;5018329;28;20088;-72